Time;durP1;ratioP1;P1;durP2;ratioP2;P2;SDS_P1;SDS_P2;PMS_P1;PMS_P2;Temp;Humidity;BMP_temperature;BMP_pressure;BME280_temperature;BME280_humidity;BME280_pressure;Samples;Min_cycle;Max_cycle;Signal;HPM_P1;HPM_P2
2023/07/18 00:00:43;;;;;;;3.67;2.10;;;22.50;60.50;;;;;;5086579;28;20303;-70
2023/07/18 00:03:11;;;;;;;5.67;2.20;;;22.40;60.70;;;;;;5091801;28;20200;-70
2023/07/18 00:05:40;;;;;;;3.90;1.97;;;22.30;61.00;;;;;;5092782;28;20221;-70
2023/07/18 00:08:07;;;;;;;3.30;2.00;;;22.30;61.40;;;;;;5092171;28;20220;-70
2023/07/18 00:10:35;;;;;;;2.47;1.93;;;22.20;61.50;;;;;;5085664;28;20216;-69
2023/07/18 00:13:02;;;;;;;3.97;2.40;;;22.20;61.80;;;;;;5085734;28;20216;-69
2023/07/18 00:15:29;;;;;;;4.60;2.17;;;22.20;62.00;;;;;;5088753;28;20228;-69
2023/07/18 00:17:56;;;;;;;3.43;1.93;;;22.20;62.30;;;;;;5087962;28;20208;-70
2023/07/18 00:20:24;;;;;;;2.83;2.27;;;22.10;62.50;;;;;;5087806;28;20225;-69
2023/07/18 00:22:52;;;;;;;3.60;1.90;;;22.10;62.70;;;;;;5085290;28;20269;-70
2023/07/18 00:25:21;;;;;;;2.87;1.93;;;22.10;62.90;;;;;;5092222;28;20228;-70
2023/07/18 00:27:49;;;;;;;2.83;1.83;;;22.10;63.00;;;;;;5085032;28;20261;-70
2023/07/18 00:30:17;;;;;;;3.40;1.90;;;22.10;63.10;;;;;;5087930;28;20264;-70
2023/07/18 00:32:45;;;;;;;3.70;2.03;;;22.10;63.30;;;;;;5091832;28;20217;-70
2023/07/18 00:35:13;;;;;;;3.07;1.90;;;22.10;63.50;;;;;;5092460;28;20208;-70
2023/07/18 00:37:40;;;;;;;3.23;2.00;;;22.10;63.60;;;;;;5080186;28;20236;-69
2023/07/18 00:40:11;;;;;;;3.60;2.00;;;22.10;64.50;;;;;;5090167;28;20224;-70
2023/07/18 00:42:38;;;;;;;4.80;2.00;;;22.10;63.70;;;;;;5080799;28;20203;-69
2023/07/18 00:45:07;;;;;;;2.70;2.03;;;22.10;63.90;;;;;;5092266;28;20212;-69
2023/07/18 00:47:37;;;;;;;2.60;2.10;;;22.10;65.10;;;;;;5092291;28;20213;-69
2023/07/18 00:50:07;;;;;;;4.33;2.27;;;22.10;64.30;;;;;;5091397;28;20224;-69
2023/07/18 00:52:34;;;;;;;3.50;1.90;;;22.10;64.40;;;;;;5079083;28;20677;-70
2023/07/18 00:55:01;;;;;;;4.30;2.10;;;22.10;64.30;;;;;;5071922;28;20225;-70
2023/07/18 00:57:30;;;;;;;3.77;1.80;;;22.10;65.10;;;;;;5075589;28;20570;-69
2023/07/18 00:59:57;;;;;;;3.57;2.07;;;22.10;64.80;;;;;;5091787;28;20209;-69
2023/07/18 01:02:24;;;;;;;2.87;1.93;;;22.10;65.00;;;;;;5074088;28;20205;-69
2023/07/18 01:04:51;;;;;;;3.37;2.20;;;22.10;65.20;;;;;;5078698;28;20209;-70
2023/07/18 01:07:20;;;;;;;2.80;1.83;;;22.10;65.40;;;;;;5093456;28;20550;-70
2023/07/18 01:09:47;;;;;;;2.50;1.83;;;22.10;65.30;;;;;;5086584;28;20279;-70
2023/07/18 01:12:14;;;;;;;2.73;2.00;;;22.10;65.20;;;;;;5086889;28;20220;-70
2023/07/18 01:14:42;;;;;;;3.03;1.90;;;22.10;65.40;;;;;;5097783;28;20813;-70
2023/07/18 01:17:09;;;;;;;2.67;2.03;;;22.10;65.00;;;;;;5098476;28;20675;-70
2023/07/18 01:19:36;;;;;;;2.87;1.90;;;22.10;64.60;;;;;;5095452;28;20580;-70
2023/07/18 01:22:05;;;;;;;2.67;2.00;;;22.00;65.40;;;;;;5097960;28;20200;-70
2023/07/18 01:24:31;;;;;;;2.90;2.00;;;21.90;64.80;;;;;;5087630;28;20684;-69
2023/07/18 01:26:58;;;;;;;2.87;1.67;;;21.80;64.90;;;;;;5098130;28;20192;-70
2023/07/18 01:29:25;;;;;;;3.60;2.33;;;21.70;65.10;;;;;;5082786;28;20234;-70
2023/07/18 01:31:52;;;;;;;3.70;2.00;;;21.60;65.10;;;;;;5097004;28;20367;-70
2023/07/18 01:34:19;;;;;;;2.77;1.80;;;21.50;65.60;;;;;;5098130;28;20196;-69
2023/07/18 01:36:46;;;;;;;2.20;1.90;;;21.30;65.80;;;;;;5098325;28;20223;-71
2023/07/18 01:39:14;;;;;;;2.70;1.63;;;21.30;67.00;;;;;;5097404;28;20201;-70
2023/07/18 01:41:41;;;;;;;2.47;1.80;;;21.30;66.40;;;;;;5090622;28;20211;-70
2023/07/18 01:44:08;;;;;;;3.07;2.33;;;21.30;66.20;;;;;;5092489;28;20221;-70
2023/07/18 01:46:35;;;;;;;2.60;1.90;;;21.30;66.40;;;;;;5097918;28;20676;-70
2023/07/18 01:49:02;;;;;;;2.57;1.80;;;21.30;66.40;;;;;;5097457;28;20228;-70
2023/07/18 01:51:29;;;;;;;2.40;1.83;;;21.30;66.20;;;;;;5089760;28;20489;-70
2023/07/18 01:53:56;;;;;;;3.37;2.00;;;21.30;66.30;;;;;;5098061;28;20220;-71
2023/07/18 01:56:24;;;;;;;5.37;1.90;;;21.30;66.20;;;;;;5098149;28;20283;-70
2023/07/18 01:58:51;;;;;;;2.67;1.93;;;21.30;66.30;;;;;;5097889;28;20201;-70
2023/07/18 02:01:17;;;;;;;3.07;2.10;;;21.30;66.30;;;;;;5096011;28;20231;-70
2023/07/18 02:03:44;;;;;;;2.97;1.73;;;21.30;66.50;;;;;;5097826;28;20208;-70
2023/07/18 02:06:12;;;;;;;3.10;2.07;;;21.30;66.70;;;;;;5097040;28;20624;-70
2023/07/18 02:08:38;;;;;;;3.13;1.73;;;21.30;66.60;;;;;;5098354;28;20219;-70
2023/07/18 02:11:05;;;;;;;2.10;1.80;;;21.30;66.70;;;;;;5097297;28;20671;-71
2023/07/18 02:13:33;;;;;;;4.87;2.07;;;21.30;66.90;;;;;;5084490;28;20224;-70
2023/07/18 02:16:00;;;;;;;4.37;1.90;;;21.20;67.00;;;;;;5097960;28;20529;-70
2023/07/18 02:18:27;;;;;;;2.57;1.90;;;21.20;67.00;;;;;;5093512;28;20209;-70
2023/07/18 02:20:54;;;;;;;2.57;2.17;;;21.20;67.00;;;;;;5091722;28;20244;-70
2023/07/18 02:23:20;;;;;;;2.83;1.70;;;21.10;66.90;;;;;;5094567;28;20203;-70
2023/07/18 02:25:47;;;;;;;1.93;1.70;;;21.10;67.00;;;;;;5093358;28;20698;-70
2023/07/18 02:28:15;;;;;;;2.47;1.97;;;21.10;67.10;;;;;;5086972;28;20200;-70
2023/07/18 02:30:43;;;;;;;2.23;1.93;;;21.10;67.30;;;;;;5093918;28;20714;-70
2023/07/18 02:33:10;;;;;;;2.10;1.90;;;21.10;67.30;;;;;;5094243;28;20188;-70
2023/07/18 02:35:37;;;;;;;4.37;2.60;;;21.10;67.50;;;;;;5094537;28;20220;-70
2023/07/18 02:38:04;;;;;;;2.70;2.20;;;21.00;67.50;;;;;;5093321;28;20585;-70
2023/07/18 02:40:32;;;;;;;4.03;2.03;;;20.90;67.30;;;;;;5080893;28;20284;-70
2023/07/18 02:42:58;;;;;;;2.50;1.60;;;20.80;67.60;;;;;;5094009;28;20213;-70
2023/07/18 02:45:25;;;;;;;3.47;2.00;;;20.70;67.90;;;;;;5093631;28;20222;-70
2023/07/18 02:47:53;;;;;;;4.07;2.00;;;20.60;68.20;;;;;;5093392;28;20196;-70
2023/07/18 02:50:20;;;;;;;2.30;1.73;;;20.60;68.30;;;;;;5093725;28;20232;-70
2023/07/18 02:52:48;;;;;;;2.23;1.93;;;20.50;68.30;;;;;;5094595;28;20211;-70
2023/07/18 02:55:15;;;;;;;2.70;2.13;;;20.50;68.30;;;;;;5084908;28;20312;-70
2023/07/18 02:57:42;;;;;;;3.37;1.90;;;20.50;68.30;;;;;;5081555;28;20287;-70
2023/07/18 03:00:17;;;;;;;4.10;2.00;;;20.50;68.40;;;;;;5094245;28;20664;-70
2023/07/18 03:02:45;;;;;;;2.20;1.93;;;20.50;68.30;;;;;;5093810;28;20601;-70
2023/07/18 03:05:13;;;;;;;2.63;2.00;;;20.50;68.40;;;;;;5080426;28;20217;-70
2023/07/18 03:07:40;;;;;;;2.47;1.93;;;20.50;68.60;;;;;;5076384;28;20235;-71
2023/07/18 03:10:07;;;;;;;2.43;1.60;;;20.50;68.60;;;;;;5073695;28;20207;-70
2023/07/18 03:12:34;;;;;;;2.07;1.67;;;20.50;68.70;;;;;;5072992;28;20229;-70
2023/07/18 03:15:01;;;;;;;3.03;2.10;;;20.50;68.70;;;;;;5079910;28;20192;-70
2023/07/18 03:17:28;;;;;;;2.93;1.60;;;20.40;68.80;;;;;;5091180;28;20216;-70
2023/07/18 03:19:55;;;;;;;3.43;1.90;;;20.40;68.90;;;;;;5092577;28;20735;-70
2023/07/18 03:22:23;;;;;;;2.63;1.93;;;20.40;68.90;;;;;;5093310;28;20192;-70
2023/07/18 03:24:51;;;;;;;2.30;1.90;;;20.40;69.10;;;;;;5093137;28;20703;-70
2023/07/18 03:27:18;;;;;;;3.00;2.00;;;20.40;69.00;;;;;;5093030;28;20213;-70
2023/07/18 03:29:45;;;;;;;2.27;1.83;;;20.40;69.00;;;;;;5092116;28;20246;-70
2023/07/18 03:32:13;;;;;;;2.20;1.80;;;20.40;68.80;;;;;;5093086;28;20207;-70
2023/07/18 03:34:39;;;;;;;2.47;1.70;;;20.30;68.60;;;;;;5091520;28;20296;-70
2023/07/18 03:37:07;;;;;;;3.03;2.10;;;20.30;68.50;;;;;;5092232;28;20228;-70
2023/07/18 03:39:35;;;;;;;2.73;2.10;;;20.30;68.50;;;;;;5092520;28;20212;-70
2023/07/18 03:42:02;;;;;;;4.10;2.40;;;20.30;68.80;;;;;;5092620;28;20528;-70
2023/07/18 03:44:29;;;;;;;3.80;1.73;;;20.20;68.70;;;;;;5092706;28;20218;-70
2023/07/18 03:46:56;;;;;;;2.30;1.97;;;20.20;68.80;;;;;;5088504;28;20212;-70
2023/07/18 03:49:23;;;;;;;2.13;1.93;;;20.20;68.90;;;;;;5092018;28;20257;-70
2023/07/18 03:51:49;;;;;;;4.20;1.97;;;20.10;68.70;;;;;;5092174;28;20675;-70
2023/07/18 03:54:16;;;;;;;4.33;1.90;;;20.10;68.80;;;;;;5092336;28;20230;-70
2023/07/18 03:56:45;;;;;;;3.03;2.10;;;20.10;68.80;;;;;;5089278;28;20189;-70
2023/07/18 03:59:12;;;;;;;2.53;1.87;;;20.10;69.10;;;;;;5092552;28;20209;-70
2023/07/18 04:01:38;;;;;;;2.37;2.10;;;20.10;69.10;;;;;;5091165;28;20695;-70
2023/07/18 04:04:05;;;;;;;3.57;2.00;;;20.10;69.40;;;;;;5092233;28;20203;-70
2023/07/18 04:06:32;;;;;;;2.30;1.73;;;20.10;69.40;;;;;;5091483;28;20683;-70
2023/07/18 04:08:59;;;;;;;2.17;1.83;;;20.10;69.40;;;;;;5091900;28;20224;-70
2023/07/18 04:11:26;;;;;;;2.27;1.90;;;20.10;69.50;;;;;;5092606;28;20259;-70
2023/07/18 04:13:54;;;;;;;2.30;2.10;;;20.10;69.60;;;;;;5084445;28;20205;-70
2023/07/18 04:16:21;;;;;;;2.03;1.67;;;20.10;69.70;;;;;;5078925;28;20205;-70
2023/07/18 04:18:48;;;;;;;2.60;2.00;;;20.10;69.50;;;;;;5086093;28;20196;-70
2023/07/18 04:21:15;;;;;;;2.23;1.93;;;20.20;69.80;;;;;;5092544;28;20295;-70
2023/07/18 04:23:42;;;;;;;3.30;1.80;;;20.20;69.50;;;;;;5091074;28;20564;-70
2023/07/18 04:26:09;;;;;;;2.17;1.80;;;20.20;69.70;;;;;;5092394;28;20234;-70
2023/07/18 04:28:37;;;;;;;4.07;2.60;;;20.20;69.70;;;;;;5091408;28;20235;-70
2023/07/18 04:31:05;;;;;;;4.57;2.17;;;20.20;70.10;;;;;;5091363;28;20185;-70
2023/07/18 04:33:34;;;;;;;5.47;2.40;;;20.20;70.40;;;;;;5082581;28;20660;-70
2023/07/18 04:36:01;;;;;;;6.20;2.43;;;20.10;70.40;;;;;;5084915;28;20197;-69
2023/07/18 04:38:28;;;;;;;5.97;2.10;;;20.20;70.50;;;;;;5091290;28;20212;-70
2023/07/18 04:40:55;;;;;;;4.70;1.87;;;20.20;70.70;;;;;;5090925;28;20237;-69
2023/07/18 04:43:22;;;;;;;3.13;1.90;;;20.20;70.40;;;;;;5085800;28;20215;-69
2023/07/18 04:45:49;;;;;;;4.07;2.00;;;20.20;70.40;;;;;;5088239;28;20221;-69
2023/07/18 04:48:18;;;;;;;3.70;2.00;;;20.20;70.70;;;;;;5084855;28;20235;-70
2023/07/18 04:50:50;;;;;;;2.73;1.90;;;20.20;71.10;;;;;;5071800;28;20270;-69
2023/07/18 04:53:17;;;;;;;3.20;1.97;;;20.20;71.20;;;;;;5073039;28;20233;-70
2023/07/18 04:55:45;;;;;;;6.47;2.50;;;20.30;71.20;;;;;;5071897;28;20205;-70
2023/07/18 04:58:12;;;;;;;7.57;2.97;;;20.30;71.90;;;;;;5082403;28;20292;-70
2023/07/18 05:00:39;;;;;;;7.60;2.57;;;20.30;71.40;;;;;;5071977;28;20215;-70
2023/07/18 05:03:06;;;;;;;7.13;3.10;;;20.40;71.00;;;;;;5092022;28;20299;-70
2023/07/18 05:05:34;;;;;;;4.53;2.77;;;20.40;71.10;;;;;;5081040;28;20225;-70
2023/07/18 05:08:02;;;;;;;6.47;2.53;;;20.50;71.30;;;;;;5082026;28;20211;-70
2023/07/18 05:10:28;;;;;;;8.03;2.90;;;20.60;71.40;;;;;;5073110;28;20236;-70
2023/07/18 05:12:56;;;;;;;9.60;3.07;;;20.60;71.00;;;;;;5071532;28;20216;-70
2023/07/18 05:15:24;;;;;;;8.53;3.83;;;20.70;71.50;;;;;;5073840;28;20541;-70
2023/07/18 05:17:51;;;;;;;8.70;3.67;;;20.80;71.90;;;;;;5083417;28;20196;-69
2023/07/18 05:20:20;;;;;;;4.83;2.60;;;20.80;71.80;;;;;;5091172;28;20228;-70
2023/07/18 05:22:48;;;;;;;6.27;3.03;;;20.90;72.20;;;;;;5083467;28;20236;-70
2023/07/18 05:25:16;;;;;;;6.67;2.87;;;21.00;72.30;;;;;;5091400;28;20196;-70
2023/07/18 05:27:43;;;;;;;3.53;2.23;;;21.10;72.00;;;;;;5088749;28;20215;-70
2023/07/18 05:30:13;;;;;;;4.50;2.17;;;21.10;71.60;;;;;;5079082;28;20203;-70
2023/07/18 05:32:40;;;;;;;2.43;2.00;;;21.20;71.70;;;;;;5089797;28;20208;-70
2023/07/18 05:35:10;;;;;;;2.90;2.10;;;21.30;71.30;;;;;;5089645;28;20227;-70
2023/07/18 05:37:37;;;;;;;4.03;2.20;;;21.30;71.00;;;;;;5091103;28;20224;-70
2023/07/18 05:40:09;;;;;;;3.80;2.20;;;21.40;71.10;;;;;;5090558;28;20214;-70
2023/07/18 05:42:36;;;;;;;3.97;2.10;;;21.40;69.90;;;;;;5089964;28;20661;-70
2023/07/18 05:45:04;;;;;;;3.83;2.27;;;21.50;69.80;;;;;;5091031;28;20205;-70
2023/07/18 05:47:30;;;;;;;3.73;1.90;;;21.50;70.50;;;;;;5089476;28;20224;-70
2023/07/18 05:49:57;;;;;;;5.03;1.60;;;21.60;70.40;;;;;;5080193;28;20220;-70
2023/07/18 05:52:24;;;;;;;4.00;1.83;;;21.60;69.60;;;;;;5093173;28;20533;-70
2023/07/18 05:54:51;;;;;;;4.77;1.90;;;21.60;70.40;;;;;;5094624;28;20200;-70
2023/07/18 05:57:19;;;;;;;3.10;2.10;;;21.70;69.50;;;;;;5093173;28;20193;-70
2023/07/18 05:59:46;;;;;;;2.83;2.00;;;21.70;69.70;;;;;;5082653;28;20685;-70
2023/07/18 06:02:13;;;;;;;2.57;1.97;;;21.70;69.90;;;;;;5093462;28;20204;-70
2023/07/18 06:04:40;;;;;;;5.20;2.20;;;21.80;69.80;;;;;;5094728;28;20228;-70
2023/07/18 06:07:07;;;;;;;3.30;2.10;;;21.80;69.40;;;;;;5094086;28;20675;-70
2023/07/18 06:09:34;;;;;;;4.37;2.10;;;21.90;69.20;;;;;;5092641;28;20233;-70
2023/07/18 06:12:01;;;;;;;3.07;2.10;;;21.90;68.00;;;;;;5094046;28;20219;-69
2023/07/18 06:14:30;;;;;;;3.97;2.27;;;22.00;67.50;;;;;;5088281;28;20220;-69
2023/07/18 06:16:58;;;;;;;3.27;1.90;;;22.10;67.10;;;;;;5079669;28;20621;-69
2023/07/18 06:19:25;;;;;;;5.30;2.10;;;22.20;66.60;;;;;;5075073;28;20251;-69
2023/07/18 06:21:52;;;;;;;2.87;2.13;;;22.20;67.30;;;;;;5094061;28;20610;-69
2023/07/18 06:24:19;;;;;;;2.97;2.00;;;22.30;67.20;;;;;;5094222;28;20232;-69
2023/07/18 06:26:48;;;;;;;3.50;2.30;;;22.40;66.90;;;;;;5093877;28;20227;-70
2023/07/18 06:29:17;;;;;;;2.70;2.20;;;22.50;67.30;;;;;;5058620;28;20224;-69
2023/07/18 06:31:45;;;;;;;2.43;2.23;;;22.60;66.70;;;;;;5093988;28;20216;-69
2023/07/18 06:34:12;;;;;;;4.13;2.40;;;22.60;65.90;;;;;;5093265;28;20280;-69
2023/07/18 06:36:39;;;;;;;2.83;2.40;;;22.70;65.70;;;;;;5094319;28;20561;-69
2023/07/18 06:39:06;;;;;;;3.47;2.20;;;22.80;65.00;;;;;;5093447;28;20208;-69
2023/07/18 06:41:33;;;;;;;2.90;2.50;;;22.90;64.40;;;;;;5093999;28;20184;-69
2023/07/18 06:44:00;;;;;;;3.67;2.30;;;23.00;64.10;;;;;;5094211;28;20201;-69
2023/07/18 06:46:27;;;;;;;5.37;2.43;;;23.10;63.20;;;;;;5093229;28;20216;-69
2023/07/18 06:48:55;;;;;;;2.43;1.87;;;23.00;63.30;;;;;;5093389;28;20288;-69
2023/07/18 06:51:22;;;;;;;3.93;1.90;;;23.20;63.40;;;;;;5093935;28;20188;-69
2023/07/18 06:53:49;;;;;;;4.80;2.20;;;23.30;63.00;;;;;;5093862;28;20306;-69
2023/07/18 06:56:16;;;;;;;3.87;2.37;;;23.40;62.00;;;;;;5089402;28;20225;-70
2023/07/18 06:58:42;;;;;;;3.30;1.80;;;23.50;61.40;;;;;;5083841;28;20292;-70
2023/07/18 07:01:10;;;;;;;3.30;1.87;;;23.60;61.70;;;;;;5073329;28;20201;-70
2023/07/18 07:03:37;;;;;;;3.97;2.20;;;23.70;61.40;;;;;;5072888;28;20202;-70
2023/07/18 07:06:11;;;;;;;3.80;2.03;;;23.70;60.60;;;;;;5090263;28;20266;-69
2023/07/18 07:08:38;;;;;;;2.63;2.10;;;23.80;60.70;;;;;;5091634;28;20228;-69
2023/07/18 07:11:06;;;;;;;4.93;2.30;;;23.90;59.20;;;;;;5089014;28;20275;-69
2023/07/18 07:13:34;;;;;;;3.67;1.87;;;24.00;59.80;;;;;;5093319;28;20300;-69
2023/07/18 07:16:01;;;;;;;5.70;2.30;;;24.10;59.60;;;;;;5093335;28;20307;-69
2023/07/18 07:18:28;;;;;;;4.60;2.20;;;24.10;58.70;;;;;;5092846;28;20262;-69
2023/07/18 07:20:55;;;;;;;4.10;2.20;;;24.20;58.70;;;;;;5086942;28;20252;-69
2023/07/18 07:23:23;;;;;;;5.00;2.40;;;24.40;58.30;;;;;;5091060;28;20283;-69
2023/07/18 07:25:50;;;;;;;3.50;1.90;;;24.40;57.80;;;;;;5092710;28;20205;-69
2023/07/18 07:28:17;;;;;;;2.43;2.00;;;24.50;58.60;;;;;;5076493;28;20228;-69
2023/07/18 07:30:44;;;;;;;3.47;2.13;;;24.60;58.50;;;;;;5072589;28;20681;-69
2023/07/18 07:33:12;;;;;;;3.57;2.37;;;24.70;58.00;;;;;;5072599;28;20838;-69
2023/07/18 07:35:39;;;;;;;4.43;2.10;;;24.90;57.50;;;;;;5072370;28;20701;-70
2023/07/18 07:38:06;;;;;;;5.53;2.13;;;24.90;57.20;;;;;;5072126;28;20727;-69
2023/07/18 07:40:35;;;;;;;2.47;1.80;;;25.00;56.60;;;;;;5086121;28;20638;-69
2023/07/18 07:43:02;;;;;;;2.63;2.07;;;25.10;56.80;;;;;;5092305;28;20201;-70
2023/07/18 07:45:29;;;;;;;3.77;2.17;;;25.20;56.70;;;;;;5092378;28;20307;-69
2023/07/18 07:47:56;;;;;;;4.33;1.77;;;25.30;56.10;;;;;;5091703;28;20655;-69
2023/07/18 07:50:23;;;;;;;2.40;2.20;;;25.40;57.00;;;;;;5084046;28;20204;-69
2023/07/18 07:52:49;;;;;;;3.87;2.07;;;25.50;57.20;;;;;;5091957;28;20207;-69
2023/07/18 07:55:16;;;;;;;3.40;2.03;;;25.60;56.90;;;;;;5092131;28;20271;-69
2023/07/18 07:57:45;;;;;;;3.03;2.00;;;25.70;57.20;;;;;;5079306;28;20283;-69
2023/07/18 08:00:13;;;;;;;3.30;1.80;;;25.90;56.10;;;;;;5086023;28;20268;-69
2023/07/18 08:02:40;;;;;;;3.80;2.20;;;25.90;56.10;;;;;;5075042;28;20236;-69
2023/07/18 08:05:08;;;;;;;5.27;1.80;;;26.00;55.60;;;;;;5071240;28;20738;-69
2023/07/18 08:07:35;;;;;;;3.43;2.20;;;26.10;55.00;;;;;;5071277;28;20309;-69
2023/07/18 08:10:02;;;;;;;3.27;2.23;;;26.20;54.80;;;;;;5080936;28;20236;-69
2023/07/18 08:12:30;;;;;;;2.67;2.10;;;26.20;54.70;;;;;;5091151;28;20209;-69
2023/07/18 08:14:59;;;;;;;3.53;2.20;;;26.30;55.00;;;;;;5090280;28;20222;-69
2023/07/18 08:17:26;;;;;;;2.30;2.00;;;26.40;53.90;;;;;;5091069;28;20231;-69
2023/07/18 08:19:52;;;;;;;3.57;2.37;;;26.50;54.20;;;;;;5082113;28;20229;-69
2023/07/18 08:22:19;;;;;;;2.93;2.17;;;26.60;53.70;;;;;;5070306;28;20716;-69
2023/07/18 08:24:46;;;;;;;3.17;2.27;;;26.70;53.80;;;;;;5071074;28;20758;-69
2023/07/18 08:27:13;;;;;;;3.00;2.20;;;26.80;53.30;;;;;;5070732;28;20321;-69
2023/07/18 08:29:41;;;;;;;3.57;2.20;;;26.80;53.40;;;;;;5041145;28;20570;-69
2023/07/18 08:32:10;;;;;;;2.97;2.00;;;26.90;54.00;;;;;;5090247;28;20209;-69
2023/07/18 08:34:37;;;;;;;2.60;1.83;;;27.00;53.00;;;;;;5090878;28;20319;-69
2023/07/18 08:37:05;;;;;;;4.87;2.37;;;27.10;53.00;;;;;;5091277;28;20197;-69
2023/07/18 08:39:32;;;;;;;3.60;2.07;;;27.20;52.90;;;;;;5085896;28;20274;-69
2023/07/18 08:42:00;;;;;;;5.17;2.47;;;27.30;53.10;;;;;;5071130;28;20264;-69
2023/07/18 08:44:29;;;;;;;3.37;2.13;;;27.40;52.00;;;;;;5091120;28;20218;-69
2023/07/18 08:46:56;;;;;;;2.33;1.97;;;27.50;52.60;;;;;;5091123;28;20236;-69
2023/07/18 08:49:28;;;;;;;4.07;2.23;;;27.60;51.90;;;;;;5090189;28;20683;-69
2023/07/18 08:51:55;;;;;;;2.83;2.00;;;27.60;52.40;;;;;;5090525;28;20211;-69
2023/07/18 08:54:22;;;;;;;3.43;1.93;;;27.70;51.70;;;;;;5091011;28;20230;-69
2023/07/18 08:56:50;;;;;;;2.70;2.00;;;27.80;51.10;;;;;;5081864;28;20469;-69
2023/07/18 08:59:18;;;;;;;3.33;2.10;;;27.90;51.00;;;;;;5070422;28;20734;-69
2023/07/18 09:01:48;;;;;;;4.80;2.20;;;28.00;51.10;;;;;;5070540;28;20208;-69
2023/07/18 09:04:15;;;;;;;2.73;1.83;;;28.10;51.20;;;;;;5070296;28;20211;-69
2023/07/18 09:06:49;;;;;;;3.57;2.00;;;28.20;51.50;;;;;;5077747;28;20218;-69
2023/07/18 09:09:17;;;;;;;3.77;1.97;;;28.30;50.20;;;;;;5079493;28;20619;-70
2023/07/18 09:11:55;;;;;;;5.67;1.90;;;28.30;50.90;;;;;;5069995;28;20236;-69
2023/07/18 09:14:26;;;;;;;3.07;1.90;;;28.50;50.00;;;;;;5070716;28;20224;-69
2023/07/18 09:16:55;;;;;;;2.33;1.87;;;28.50;49.80;;;;;;5070677;28;20244;-69
2023/07/18 09:19:36;;;;;;;2.63;2.17;;;28.70;50.00;;;;;;5080825;28;20581;-69
2023/07/18 09:22:05;;;;;;;4.53;1.83;;;28.70;49.70;;;;;;5090255;28;20274;-69
2023/07/18 09:24:35;;;;;;;6.07;2.03;;;28.80;49.60;;;;;;5090303;28;20237;-70
2023/07/18 09:27:04;;;;;;;2.50;1.70;;;28.90;48.30;;;;;;5092200;28;20320;-69
2023/07/18 09:29:31;;;;;;;2.20;1.90;;;29.00;48.10;;;;;;5082490;28;20262;-69
2023/07/18 09:31:58;;;;;;;2.87;1.70;;;29.10;47.70;;;;;;5073926;28;20212;-69
2023/07/18 09:34:27;;;;;;;4.70;1.93;;;29.30;46.70;;;;;;5073763;28;20335;-69
2023/07/18 09:36:59;;;;;;;5.77;2.00;;;29.40;47.90;;;;;;5074305;28;20292;-69
2023/07/18 09:39:29;;;;;;;2.70;1.60;;;29.60;47.10;;;;;;5085509;28;20212;-69
2023/07/18 09:41:57;;;;;;;3.43;1.77;;;29.70;45.80;;;;;;5093820;28;20227;-69
2023/07/18 09:44:26;;;;;;;3.67;1.70;;;29.80;46.60;;;;;;5074384;28;20208;-69
2023/07/18 09:46:53;;;;;;;2.80;1.77;;;29.90;45.80;;;;;;5073445;28;20319;-69
2023/07/18 09:49:22;;;;;;;4.13;1.83;;;29.90;46.00;;;;;;5083953;28;20208;-69
2023/07/18 09:51:53;;;;;;;2.43;1.97;;;29.90;45.70;;;;;;5094173;28;20311;-69
2023/07/18 09:54:21;;;;;;;5.40;1.90;;;29.90;44.50;;;;;;5094242;28;20231;-69
2023/07/18 09:56:51;;;;;;;3.23;1.80;;;29.90;43.80;;;;;;5094671;28;20208;-69
2023/07/18 09:59:20;;;;;;;2.50;1.73;;;29.70;43.20;;;;;;5084382;28;20216;-69
2023/07/18 10:01:48;;;;;;;2.23;1.70;;;29.60;43.10;;;;;;5073705;28;20286;-69
2023/07/18 10:04:17;;;;;;;4.30;2.10;;;29.60;43.10;;;;;;5074078;28;20212;-69
2023/07/18 10:06:45;;;;;;;4.80;1.70;;;29.50;42.80;;;;;;5073851;28;20229;-69
2023/07/18 10:09:13;;;;;;;3.33;1.70;;;29.50;43.20;;;;;;5082729;28;20201;-69
2023/07/18 10:12:13;;;;;;;3.90;1.93;;;29.50;44.30;;;;;;5093264;28;20204;-69
2023/07/18 10:15:00;;;;;;;2.27;1.80;;;29.60;45.00;;;;;;5093794;28;20239;-69
2023/07/18 10:17:27;;;;;;;2.43;1.93;;;29.70;46.10;;;;;;5093258;28;20192;-69
2023/07/18 10:19:54;;;;;;;5.20;2.00;;;29.80;46.10;;;;;;5078780;28;20243;-69
2023/07/18 10:22:29;;;;;;;5.93;1.90;;;29.90;46.50;;;;;;5072882;28;20665;-69
2023/07/18 10:25:00;;;;;;;3.27;1.90;;;30.00;46.30;;;;;;5072994;28;20228;-69
2023/07/18 10:27:37;;;;;;;2.10;1.77;;;30.10;45.60;;;;;;5074636;28;20244;-69
2023/07/18 10:30:05;;;;;;;3.57;2.10;;;30.20;45.20;;;;;;5088274;28;20198;-69
2023/07/18 10:32:33;;;;;;;2.90;2.03;;;30.20;45.90;;;;;;5089086;28;20308;-69
2023/07/18 10:35:00;;;;;;;3.40;1.90;;;30.20;45.80;;;;;;5087302;28;20196;-70
2023/07/18 10:37:30;;;;;;;2.93;1.97;;;30.30;45.80;;;;;;5093296;28;20231;-69
2023/07/18 10:39:57;;;;;;;2.80;1.93;;;30.30;45.60;;;;;;5077624;28;20577;-69
2023/07/18 10:42:30;;;;;;;4.07;2.00;;;30.30;45.00;;;;;;5076822;28;20275;-69
2023/07/18 10:45:00;;;;;;;3.03;1.93;;;30.40;45.00;;;;;;5092263;28;20224;-69
2023/07/18 10:47:28;;;;;;;3.43;2.40;;;30.50;45.70;;;;;;5092847;28;20232;-70
2023/07/18 10:49:56;;;;;;;4.90;2.17;;;30.50;45.30;;;;;;5092351;28;20210;-69
2023/07/18 10:52:23;;;;;;;5.23;2.03;;;30.60;45.00;;;;;;5092369;28;20204;-69
2023/07/18 10:54:55;;;;;;;2.50;2.20;;;30.50;45.30;;;;;;5092382;28;20207;-69
2023/07/18 10:57:26;;;;;;;4.83;2.10;;;30.50;45.30;;;;;;5090532;28;20234;-70
2023/07/18 10:59:54;;;;;;;2.47;1.70;;;30.40;44.50;;;;;;5086263;28;20222;-69
2023/07/18 11:02:22;;;;;;;2.70;2.13;;;30.40;44.40;;;;;;5089948;28;20708;-69
2023/07/18 11:04:51;;;;;;;4.47;2.30;;;30.30;44.00;;;;;;5083567;28;20714;-69
2023/07/18 11:07:18;;;;;;;2.80;2.10;;;30.20;44.20;;;;;;5073044;28;20227;-69
2023/07/18 11:09:45;;;;;;;4.53;2.43;;;30.20;44.30;;;;;;5084899;28;20220;-69
2023/07/18 11:12:19;;;;;;;3.43;1.80;;;30.20;45.00;;;;;;5093370;28;20733;-70
2023/07/18 11:14:46;;;;;;;4.47;2.00;;;30.10;43.20;;;;;;5093243;28;20255;-70
2023/07/18 11:17:14;;;;;;;4.10;2.33;;;30.10;43.20;;;;;;5093532;28;20224;-70
2023/07/18 11:19:42;;;;;;;4.97;2.13;;;29.90;43.20;;;;;;5082652;28;20732;-69
2023/07/18 11:22:10;;;;;;;3.20;2.23;;;29.90;44.60;;;;;;5093131;28;20197;-69
2023/07/18 11:24:37;;;;;;;3.03;2.00;;;29.90;44.50;;;;;;5093306;28;20271;-70
2023/07/18 11:27:15;;;;;;;3.30;2.07;;;29.90;43.00;;;;;;5093470;28;20242;-69
2023/07/18 11:29:49;;;;;;;2.77;1.90;;;29.90;43.00;;;;;;5087192;28;20192;-69
2023/07/18 11:32:16;;;;;;;1.93;1.73;;;30.00;44.00;;;;;;5092637;28;20224;-69
2023/07/18 11:34:56;;;;;;;3.90;2.00;;;30.10;43.50;;;;;;5093320;28;20244;-69
2023/07/18 11:37:23;;;;;;;4.27;1.97;;;30.10;43.20;;;;;;5092963;28;20192;-70
2023/07/18 11:39:50;;;;;;;1.93;1.77;;;30.10;43.30;;;;;;5092153;28;20300;-69
2023/07/18 11:42:17;;;;;;;1.93;1.70;;;30.20;43.40;;;;;;5089689;28;20561;-69
2023/07/18 11:44:44;;;;;;;4.47;2.00;;;30.30;42.80;;;;;;5085978;28;20257;-69
2023/07/18 11:47:12;;;;;;;3.37;2.33;;;30.50;42.60;;;;;;5092998;28;20192;-69
2023/07/18 11:49:39;;;;;;;3.83;2.00;;;30.60;42.30;;;;;;5092851;28;20277;-69
2023/07/18 11:52:09;;;;;;;2.93;1.97;;;30.50;42.20;;;;;;5092841;28;20292;-69
2023/07/18 11:54:36;;;;;;;3.03;2.00;;;30.80;43.60;;;;;;5093136;28;20188;-69
2023/07/18 11:57:05;;;;;;;3.57;2.13;;;30.80;43.00;;;;;;5090679;28;20199;-69
2023/07/18 11:59:32;;;;;;;2.93;2.00;;;30.90;43.70;;;;;;5092284;28;20585;-70
2023/07/18 12:02:00;;;;;;;2.40;1.90;;;31.10;44.40;;;;;;5092393;28;20711;-70
2023/07/18 12:04:28;;;;;;;2.80;1.90;;;31.10;44.30;;;;;;5092475;28;20204;-70
2023/07/18 12:06:55;;;;;;;2.87;1.87;;;31.20;44.40;;;;;;5092278;28;20206;-70
2023/07/18 12:09:23;;;;;;;2.57;1.67;;;31.30;44.60;;;;;;5092919;28;20269;-70
2023/07/18 12:11:50;;;;;;;3.30;1.97;;;31.50;45.30;;;;;;5087040;28;20227;-70
2023/07/18 12:14:17;;;;;;;3.73;2.20;;;31.50;44.70;;;;;;5091612;28;20235;-69
2023/07/18 12:16:44;;;;;;;5.50;2.30;;;31.70;44.00;;;;;;5092146;28;20204;-70
2023/07/18 12:19:12;;;;;;;5.47;2.60;;;31.80;44.10;;;;;;5092271;28;20237;-70
2023/07/18 12:21:39;;;;;;;3.13;1.90;;;31.90;44.50;;;;;;5092316;28;20243;-69
2023/07/18 12:24:07;;;;;;;3.43;2.20;;;32.00;44.30;;;;;;5092237;28;20259;-70
2023/07/18 12:26:35;;;;;;;4.03;2.40;;;32.10;44.20;;;;;;5091353;28;20292;-69
2023/07/18 12:29:03;;;;;;;4.73;2.77;;;32.20;41.80;;;;;;5076846;28;20309;-70
2023/07/18 12:31:31;;;;;;;3.67;2.07;;;32.20;41.80;;;;;;5092344;28;20232;-69
2023/07/18 12:33:58;;;;;;;3.20;2.10;;;32.30;42.60;;;;;;5091580;28;20205;-69
2023/07/18 12:36:25;;;;;;;2.30;1.77;;;32.40;43.60;;;;;;5091597;28;20233;-69
2023/07/18 12:38:51;;;;;;;4.20;2.40;;;32.40;42.60;;;;;;5091398;28;20221;-70
2023/07/18 12:41:18;;;;;;;3.57;2.10;;;32.40;41.80;;;;;;5091882;28;20317;-70
2023/07/18 12:43:47;;;;;;;2.33;2.13;;;32.50;41.10;;;;;;5075980;28;20241;-70
2023/07/18 12:46:14;;;;;;;5.47;2.60;;;32.50;41.40;;;;;;5085576;28;20596;-69
2023/07/18 12:48:41;;;;;;;3.07;2.37;;;32.50;40.10;;;;;;5086667;28;20258;-70
2023/07/18 12:51:08;;;;;;;3.73;2.30;;;32.40;40.20;;;;;;5092043;28;20592;-69